Time;durP1;ratioP1;P1;durP2;ratioP2;P2;SDS_P1;SDS_P2;PMS_P1;PMS_P2;Temp;Humidity;BMP_temperature;BMP_pressure;BME280_temperature;BME280_humidity;BME280_pressure;Samples;Min_cycle;Max_cycle;Signal;HPM_P1;HPM_P2
2022/03/11 00:00:58;;;;;;;11.48;8.85;;;1.40;98.20;;;;;;4961282;29;20215;-86
2022/03/11 00:03:25;;;;;;;10.55;7.78;;;1.40;99.90;;;;;;4961339;29;20754;-85
2022/03/11 00:05:52;;;;;;;20.43;8.80;;;1.30;98.40;;;;;;4929019;29;1008519;-86
2022/03/11 00:08:19;;;;;;;11.75;7.85;;;1.30;98.10;;;;;;4966423;29;20206;-86
2022/03/11 00:10:46;;;;;;;13.30;8.43;;;1.30;98.30;;;;;;4962819;29;20749;-86
2022/03/11 00:13:14;;;;;;;18.02;8.63;;;1.30;99.00;;;;;;4969022;29;20203;-86
2022/03/11 00:15:42;;;;;;;14.52;10.07;;;1.30;98.40;;;;;;4966509;29;20229;-86
2022/03/11 00:18:09;;;;;;;15.60;8.40;;;1.20;98.70;;;;;;4965979;29;20210;-86
2022/03/11 00:20:36;;;;;;;11.98;8.90;;;1.20;98.50;;;;;;4963409;29;20214;-87
2022/03/11 00:23:02;;;;;;;11.48;7.90;;;1.20;98.40;;;;;;4962447;29;20269;-87
2022/03/11 00:25:31;;;;;;;10.07;7.85;;;1.20;99.10;;;;;;4961858;29;20226;-86
2022/03/11 00:27:59;;;;;;;12.48;8.77;;;1.20;98.60;;;;;;4962325;29;20202;-85
2022/03/11 00:30:28;;;;;;;10.10;6.82;;;1.10;98.50;;;;;;4960596;28;20266;-86
2022/03/11 00:32:54;;;;;;;11.30;8.45;;;1.10;98.60;;;;;;4960722;29;20258;-85
2022/03/11 00:35:21;;;;;;;13.98;7.93;;;1.10;98.70;;;;;;4966772;29;20254;-85
2022/03/11 00:37:49;;;;;;;14.77;8.27;;;1.20;98.90;;;;;;4979801;29;20206;-85
2022/03/11 00:40:16;;;;;;;15.85;9.60;;;1.10;98.80;;;;;;4980059;28;20214;-84
2022/03/11 00:42:43;;;;;;;15.55;8.18;;;1.10;98.80;;;;;;4969154;29;20696;-85
2022/03/11 00:45:10;;;;;;;8.82;6.88;;;1.00;98.90;;;;;;4976316;29;20241;-85
2022/03/11 00:47:39;;;;;;;12.48;7.68;;;1.00;98.70;;;;;;4979125;28;20203;-85
2022/03/11 00:50:06;;;;;;;14.07;8.68;;;1.40;98.80;;;;;;4979583;29;20206;-85
2022/03/11 00:52:33;;;;;;;11.52;7.53;;;0.90;98.60;;;;;;4974338;28;20214;-84
2022/03/11 00:54:59;;;;;;;13.45;8.75;;;1.00;99.60;;;;;;4974997;28;20206;-82
2022/03/11 00:57:26;;;;;;;14.98;7.57;;;0.90;98.70;;;;;;4976769;28;20227;-85
2022/03/11 00:59:53;;;;;;;21.95;8.60;;;1.00;99.90;;;;;;4962109;29;20216;-86
2022/03/11 01:02:20;;;;;;;8.05;7.25;;;1.00;99.10;;;;;;4975383;29;20206;-84
2022/03/11 01:04:49;;;;;;;9.07;7.28;;;0.90;98.40;;;;;;5006171;23;20214;-87
2022/03/11 01:07:17;;;;;;;14.27;7.80;;;0.90;98.80;;;;;;4951001;29;20203;-87
2022/03/11 01:09:43;;;;;;;14.80;8.57;;;0.40;99.10;;;;;;4948631;29;20217;-87
2022/03/11 01:12:10;;;;;;;13.77;9.18;;;0.80;98.80;;;;;;4947656;29;20223;-87
2022/03/11 01:14:36;;;;;;;12.63;7.70;;;0.90;99.20;;;;;;4947357;29;20223;-87
2022/03/11 01:17:04;;;;;;;9.25;7.75;;;0.60;99.90;;;;;;4946941;29;20207;-86
2022/03/11 01:19:30;;;;;;;15.43;8.40;;;0.70;99.10;;;;;;4946187;29;20211;-86
2022/03/11 01:21:58;;;;;;;13.65;9.18;;;0.90;99.50;;;;;;4946864;29;20210;-85
2022/03/11 01:24:25;;;;;;;12.60;8.38;;;0.70;99.20;;;;;;4946445;29;20223;-87
2022/03/11 01:26:51;;;;;;;10.52;7.63;;;0.70;98.90;;;;;;4946106;29;20210;-87
2022/03/11 01:29:18;;;;;;;11.10;8.52;;;0.80;99.90;;;;;;4946157;29;20294;-85
2022/03/11 01:31:44;;;;;;;16.73;8.90;;;0.60;99.10;;;;;;4946449;29;20203;-86
2022/03/11 01:34:11;;;;;;;14.85;9.25;;;0.90;99.90;;;;;;4946115;29;20231;-86
2022/03/11 01:36:38;;;;;;;14.57;8.80;;;0.60;99.20;;;;;;4945955;29;20210;-86
2022/03/11 01:39:06;;;;;;;12.50;8.25;;;0.60;99.70;;;;;;4946561;29;20210;-86
2022/03/11 01:41:33;;;;;;;12.10;8.13;;;0.60;99.20;;;;;;4945476;29;20211;-86
2022/03/11 01:44:01;;;;;;;11.25;7.65;;;0.00;99.90;;;;;;4949947;29;20202;-87
2022/03/11 01:46:29;;;;;;;14.73;9.45;;;;;;;;;;4949275;29;20234;-86
2022/03/11 01:48:55;;;;;;;11.00;8.05;;;0.60;98.90;;;;;;4949951;29;20217;-86
2022/03/11 01:51:23;;;;;;;9.50;7.88;;;0.60;99.20;;;;;;4949592;29;20227;-87
2022/03/11 01:53:50;;;;;;;13.63;8.85;;;0.50;99.30;;;;;;4955501;29;20230;-86
2022/03/11 01:56:18;;;;;;;13.65;8.75;;;0.50;99.80;;;;;;4949124;29;20234;-87
2022/03/11 01:58:49;;;;;;;12.10;7.10;;;0.50;99.80;;;;;;4952467;29;20211;-84
2022/03/11 02:01:16;;;;;;;17.63;10.40;;;0.60;99.60;;;;;;4949175;29;20493;-85
2022/03/11 02:03:42;;;;;;;17.98;10.07;;;0.50;99.10;;;;;;4950843;29;20207;-87
2022/03/11 02:06:09;;;;;;;14.55;8.60;;;0.50;99.90;;;;;;4956377;28;20238;-86
2022/03/11 02:08:36;;;;;;;12.95;9.30;;;0.40;99.60;;;;;;4953983;29;20227;-86
2022/03/11 02:11:03;;;;;;;13.57;9.60;;;0.30;99.90;;;;;;4959567;28;20187;-86
2022/03/11 02:13:44;;;;;;;12.05;9.23;;;0.30;99.80;;;;;;4961590;28;20218;-85
2022/03/11 02:16:12;;;;;;;11.75;9.60;;;0.30;99.90;;;;;;4959544;29;20226;-86
2022/03/11 02:18:39;;;;;;;14.07;8.90;;;0.20;99.90;;;;;;4955822;29;20275;-86
2022/03/11 02:21:06;;;;;;;16.70;9.90;;;0.20;99.90;;;;;;4956958;29;20207;-87
2022/03/11 02:23:42;;;;;;;14.00;9.10;;;0.20;99.90;;;;;;4957614;29;20207;-86
2022/03/11 02:26:09;;;;;;;12.35;6.97;;;0.20;99.90;;;;;;4960596;29;20239;-86
2022/03/11 02:28:36;;;;;;;13.73;8.57;;;-0.10;99.90;;;;;;4956421;29;20239;-85
2022/03/11 02:31:02;;;;;;;12.98;8.15;;;0.10;99.90;;;;;;4954490;29;20279;-86
2022/03/11 02:33:29;;;;;;;12.88;8.93;;;0.10;99.90;;;;;;4953466;29;20223;-86
2022/03/11 02:35:56;;;;;;;21.48;8.50;;;0.20;99.90;;;;;;4962919;28;20223;-85
2022/03/11 02:38:23;;;;;;;15.48;10.00;;;0.20;99.90;;;;;;4963141;28;20211;-84
2022/03/11 02:40:51;;;;;;;19.98;10.35;;;0.30;99.90;;;;;;4963080;28;20215;-84
2022/03/11 02:43:18;;;;;;;13.05;9.43;;;0.00;99.90;;;;;;4962826;28;20199;-84
2022/03/11 02:45:44;;;;;;;16.10;9.05;;;0.10;99.90;;;;;;4953362;29;20231;-85
2022/03/11 02:48:11;;;;;;;12.55;8.95;;;0.20;99.90;;;;;;4950255;29;20211;-85
2022/03/11 02:50:38;;;;;;;15.98;9.90;;;0.10;99.90;;;;;;4947073;29;20211;-87
2022/03/11 02:53:04;;;;;;;20.42;9.75;;;0.00;99.90;;;;;;4947455;29;20227;-86
2022/03/11 02:55:31;;;;;;;15.82;9.55;;;-0.10;99.90;;;;;;4946167;29;20238;-86
2022/03/11 02:57:59;;;;;;;13.82;9.50;;;0.00;99.90;;;;;;4947364;29;20242;-87
2022/03/11 03:00:26;;;;;;;13.13;9.20;;;-0.10;99.90;;;;;;4945772;29;20206;-86
2022/03/11 03:02:52;;;;;;;18.90;9.07;;;-0.10;99.90;;;;;;4946876;29;20218;-86
2022/03/11 03:05:19;;;;;;;10.63;8.23;;;-0.10;99.90;;;;;;4947091;29;20242;-86
2022/03/11 03:07:45;;;;;;;16.60;8.93;;;-0.10;99.90;;;;;;4951751;29;20203;-87
2022/03/11 03:10:12;;;;;;;13.68;8.35;;;-0.10;99.90;;;;;;4957627;29;20234;-87
2022/03/11 03:12:39;;;;;;;12.88;9.13;;;-0.20;99.90;;;;;;4961892;28;20214;-86
2022/03/11 03:15:08;;;;;;;12.02;8.38;;;-0.10;99.90;;;;;;4954472;29;20227;-86
2022/03/11 03:17:35;;;;;;;10.40;8.75;;;-0.20;99.90;;;;;;4945439;29;20235;-86
2022/03/11 03:20:03;;;;;;;15.63;9.13;;;-0.20;99.90;;;;;;4945602;29;20230;-86
2022/03/11 03:22:29;;;;;;;20.27;9.73;;;-0.30;99.90;;;;;;4945027;29;20235;-86
2022/03/11 03:24:56;;;;;;;13.07;9.48;;;-0.20;99.90;;;;;;4948095;29;20227;-86
2022/03/11 03:27:22;;;;;;;18.85;10.65;;;-0.10;99.90;;;;;;4961604;28;20231;-86
2022/03/11 03:29:49;;;;;;;16.95;10.10;;;-0.20;99.90;;;;;;4959322;28;20262;-86
2022/03/11 03:32:17;;;;;;;15.02;9.65;;;0.10;99.90;;;;;;4958744;29;20674;-86
2022/03/11 03:34:43;;;;;;;14.05;7.97;;;-0.30;99.90;;;;;;4957305;29;20242;-86
2022/03/11 03:37:11;;;;;;;12.45;9.80;;;-0.30;99.90;;;;;;4951084;29;20218;-86
2022/03/11 03:39:40;;;;;;;12.65;9.63;;;-0.30;99.90;;;;;;4948955;29;20266;-87
2022/03/11 03:42:08;;;;;;;16.73;9.65;;;-0.40;99.90;;;;;;4948621;29;20199;-86
2022/03/11 03:44:34;;;;;;;12.25;7.70;;;-0.30;99.90;;;;;;4948584;29;20305;-86
2022/03/11 03:47:01;;;;;;;16.70;11.27;;;-0.30;99.90;;;;;;4948431;29;20207;-88
2022/03/11 03:49:30;;;;;;;15.18;8.93;;;1.70;99.90;;;;;;4949274;29;20218;-86
2022/03/11 03:51:57;;;;;;;14.07;8.88;;;-0.40;99.90;;;;;;4948666;29;20226;-86
2022/03/11 03:54:23;;;;;;;14.88;10.55;;;-0.30;99.90;;;;;;4949227;29;20247;-85
2022/03/11 03:56:51;;;;;;;14.18;8.82;;;-0.20;99.90;;;;;;4948705;29;20207;-86
2022/03/11 03:59:18;;;;;;;13.90;9.27;;;-0.40;99.90;;;;;;4947294;29;20234;-87
2022/03/11 04:01:45;;;;;;;17.23;10.43;;;-0.40;99.90;;;;;;4948545;29;20734;-87
2022/03/11 04:04:12;;;;;;;13.00;9.75;;;-0.20;99.90;;;;;;4949544;29;20313;-85
2022/03/11 04:06:42;;;;;;;12.20;8.32;;;-0.40;99.90;;;;;;4958675;29;20303;-86
2022/03/11 04:09:09;;;;;;;15.32;9.85;;;-0.50;99.90;;;;;;4959554;28;20214;-86
2022/03/11 04:11:36;;;;;;;15.77;9.82;;;1.60;99.90;;;;;;4958703;29;20207;-87
2022/03/11 04:14:04;;;;;;;15.18;9.40;;;-0.50;99.90;;;;;;4952177;29;20714;-85
2022/03/11 04:16:30;;;;;;;14.25;9.55;;;-0.30;99.90;;;;;;4951020;29;20215;-86
2022/03/11 04:18:57;;;;;;;13.93;9.45;;;-0.50;99.90;;;;;;4950186;29;20206;-86
2022/03/11 04:21:24;;;;;;;15.43;9.75;;;-0.50;99.90;;;;;;4949910;29;20231;-85
2022/03/11 04:23:52;;;;;;;18.58;9.35;;;0.00;99.90;;;;;;4948547;29;20230;-86
2022/03/11 04:26:33;;;;;;;11.45;8.48;;;-0.40;99.90;;;;;;5103260;27;20510;-86
2022/03/11 04:28:59;;;;;;;18.48;9.65;;;-0.50;99.90;;;;;;5111371;28;20202;-86
2022/03/11 04:31:26;;;;;;;20.00;9.98;;;-0.60;99.90;;;;;;5102960;28;20205;-86
2022/03/11 04:33:53;;;;;;;17.45;9.93;;;-0.60;99.90;;;;;;5101730;28;20288;-87
2022/03/11 04:36:19;;;;;;;17.70;9.07;;;-0.60;99.90;;;;;;5080223;28;20203;-84
2022/03/11 04:38:46;;;;;;;12.80;8.20;;;-0.70;99.90;;;;;;5079858;28;20224;-85
2022/03/11 04:41:12;;;;;;;13.60;9.30;;;-0.70;99.90;;;;;;5081454;28;20198;-85
2022/03/11 04:43:42;;;;;;;22.92;10.38;;;-0.70;99.90;;;;;;5083299;28;20213;-85
2022/03/11 04:46:09;;;;;;;14.25;9.80;;;-0.50;99.90;;;;;;5081670;28;20222;-85
2022/03/11 04:48:36;;;;;;;14.50;8.90;;;-0.60;99.90;;;;;;5080109;28;20256;-87
2022/03/11 04:51:04;;;;;;;12.57;9.10;;;-0.70;99.90;;;;;;5083257;28;20204;-85
2022/03/11 04:53:31;;;;;;;16.95;9.70;;;-0.60;99.90;;;;;;5087476;28;20237;-85
2022/03/11 04:55:57;;;;;;;16.83;9.27;;;-0.80;99.90;;;;;;5082518;28;20226;-86
2022/03/11 04:58:24;;;;;;;17.85;10.70;;;-1.00;99.90;;;;;;5079338;28;20439;-85
2022/03/11 05:00:52;;;;;;;17.92;9.80;;;-0.80;99.90;;;;;;5081885;28;20210;-85
2022/03/11 05:03:18;;;;;;;17.65;10.40;;;-0.60;99.90;;;;;;5082244;28;20259;-88
2022/03/11 05:05:45;;;;;;;14.90;9.68;;;-0.70;99.90;;;;;;5082220;28;20252;-86
2022/03/11 05:08:12;;;;;;;19.05;11.07;;;-0.80;99.90;;;;;;5082821;28;20211;-86
2022/03/11 05:10:38;;;;;;;13.77;8.63;;;-0.70;99.90;;;;;;5080090;28;20222;-87
2022/03/11 05:13:05;;;;;;;18.50;11.30;;;-0.80;99.90;;;;;;5079707;28;20205;-86
2022/03/11 05:15:32;;;;;;;17.27;9.95;;;-0.80;99.90;;;;;;5080425;28;20766;-86
2022/03/11 05:18:00;;;;;;;14.68;10.15;;;-0.90;99.90;;;;;;5078651;28;20203;-87
2022/03/11 05:20:26;;;;;;;16.92;9.57;;;-0.90;99.90;;;;;;5080204;28;20203;-85
2022/03/11 05:22:53;;;;;;;16.85;9.82;;;-0.80;99.90;;;;;;5083609;28;20221;-86
2022/03/11 05:25:20;;;;;;;12.90;9.60;;;-0.90;99.90;;;;;;5092536;28;20227;-85
2022/03/11 05:27:46;;;;;;;22.23;10.27;;;-0.90;99.90;;;;;;5094222;28;20210;-83
2022/03/11 05:30:13;;;;;;;16.65;10.02;;;-0.70;99.90;;;;;;5094384;28;20182;-85
2022/03/11 05:32:41;;;;;;;19.73;10.73;;;-0.70;99.90;;;;;;5093665;28;20183;-86
2022/03/11 05:35:10;;;;;;;13.57;10.05;;;-0.90;99.90;;;;;;5089114;28;20294;-86
2022/03/11 05:37:37;;;;;;;19.15;9.38;;;-0.90;99.90;;;;;;5080288;28;20259;-86
2022/03/11 05:40:05;;;;;;;16.17;10.20;;;-0.80;99.90;;;;;;5079158;28;20199;-85
2022/03/11 05:42:31;;;;;;;13.90;9.25;;;-0.80;99.90;;;;;;5078236;28;20203;-85
2022/03/11 05:44:58;;;;;;;16.00;10.30;;;-0.90;99.90;;;;;;5077912;28;20227;-85
2022/03/11 05:47:24;;;;;;;19.38;10.82;;;-0.90;99.90;;;;;;5074456;28;20206;-87
2022/03/11 05:49:51;;;;;;;15.95;10.18;;;-0.90;99.90;;;;;;5074411;28;20201;-84
2022/03/11 05:52:19;;;;;;;19.20;10.02;;;-0.90;99.90;;;;;;5069770;28;20206;-87
2022/03/11 05:54:46;;;;;;;14.38;9.52;;;-0.90;99.90;;;;;;5068581;28;20218;-86
2022/03/11 05:57:12;;;;;;;13.73;9.48;;;-0.90;99.90;;;;;;5075454;28;20203;-85
2022/03/11 05:59:39;;;;;;;14.95;8.85;;;-0.50;99.90;;;;;;5077136;28;20207;-85
2022/03/11 06:02:05;;;;;;;19.90;10.27;;;-0.90;99.90;;;;;;5076736;28;20692;-84
2022/03/11 06:04:32;;;;;;;19.90;9.43;;;-0.90;99.90;;;;;;5067005;28;20590;-85
2022/03/11 06:06:58;;;;;;;18.92;10.48;;;-0.90;99.90;;;;;;5065940;28;20305;-86
2022/03/11 06:09:26;;;;;;;15.05;10.65;;;-0.80;99.90;;;;;;5077609;28;20199;-85
2022/03/11 06:11:54;;;;;;;19.17;11.43;;;-0.70;99.90;;;;;;5078862;28;20207;-85
2022/03/11 06:14:21;;;;;;;15.25;10.60;;;-0.80;99.90;;;;;;5079038;28;20219;-85
2022/03/11 06:16:47;;;;;;;19.88;11.35;;;-0.70;99.90;;;;;;5071544;28;20592;-85
2022/03/11 06:19:14;;;;;;;19.55;10.98;;;-0.70;99.90;;;;;;5061117;28;20242;-84
2022/03/11 06:21:40;;;;;;;20.73;10.60;;;-0.50;99.90;;;;;;5061604;28;20249;-87
2022/03/11 06:24:07;;;;;;;17.92;10.65;;;-1.00;99.90;;;;;;5060906;28;20578;-85
2022/03/11 06:26:35;;;;;;;17.63;9.60;;;-0.70;99.90;;;;;;5062374;28;20265;-85
2022/03/11 06:29:02;;;;;;;17.65;11.00;;;-0.70;99.90;;;;;;5063432;28;20205;-85
2022/03/11 06:31:29;;;;;;;14.73;10.05;;;-0.70;99.90;;;;;;5062653;28;20680;-85
2022/03/11 06:33:57;;;;;;;18.02;10.07;;;-0.30;99.90;;;;;;5068747;28;20203;-84
2022/03/11 06:36:24;;;;;;;22.02;10.60;;;-0.60;99.90;;;;;;5077826;28;20203;-85
2022/03/11 06:38:51;;;;;;;15.38;10.25;;;-0.30;99.90;;;;;;5077974;28;20226;-85
2022/03/11 06:41:18;;;;;;;12.63;10.35;;;-0.40;99.90;;;;;;5077313;28;20203;-85
2022/03/11 06:43:45;;;;;;;18.08;11.15;;;-0.40;99.90;;;;;;5066496;28;20210;-85
2022/03/11 06:46:12;;;;;;;19.65;9.73;;;-0.40;99.90;;;;;;5063686;28;20702;-86
2022/03/11 06:48:39;;;;;;;16.63;9.55;;;-0.40;99.90;;;;;;5063761;28;20203;-86
2022/03/11 06:51:05;;;;;;;12.18;8.30;;;-0.30;99.90;;;;;;5071123;28;20191;-86
2022/03/11 06:53:32;;;;;;;14.32;10.70;;;-0.70;99.90;;;;;;5062133;28;20309;-85
2022/03/11 06:56:00;;;;;;;18.05;10.40;;;-0.40;99.90;;;;;;5063430;28;20247;-85
2022/03/11 06:58:27;;;;;;;17.35;10.05;;;-0.40;99.90;;;;;;5064187;28;20574;-85
2022/03/11 07:00:55;;;;;;;14.98;9.65;;;-0.30;99.90;;;;;;5071248;28;20222;-85
2022/03/11 07:03:21;;;;;;;12.70;10.32;;;-0.20;99.90;;;;;;5069083;28;20210;-85
2022/03/11 07:05:48;;;;;;;14.98;8.27;;;-0.20;99.90;;;;;;5063859;28;20262;-85
2022/03/11 07:08:15;;;;;;;19.60;11.65;;;-0.20;99.90;;;;;;5062906;28;20207;-85
2022/03/11 07:10:41;;;;;;;17.45;11.10;;;-0.10;99.90;;;;;;5064631;28;20231;-85
2022/03/11 07:13:08;;;;;;;15.90;9.88;;;0.00;99.90;;;;;;5066194;28;20207;-85
2022/03/11 07:15:34;;;;;;;13.88;10.23;;;0.00;99.90;;;;;;5061492;28;20254;-85
2022/03/11 07:18:03;;;;;;;17.00;10.10;;;-0.10;99.90;;;;;;5062265;28;20202;-85
2022/03/11 07:20:29;;;;;;;14.43;9.23;;;0.10;99.90;;;;;;5063434;28;20206;-85
2022/03/11 07:22:56;;;;;;;15.02;9.80;;;0.00;99.90;;;;;;5062484;28;20278;-85
2022/03/11 07:25:23;;;;;;;17.48;9.75;;;0.10;99.90;;;;;;5061522;28;20254;-87
2022/03/11 07:27:49;;;;;;;17.75;10.82;;;0.00;99.90;;;;;;5062943;28;20237;-86
2022/03/11 07:30:16;;;;;;;21.30;11.85;;;0.20;99.90;;;;;;5063641;28;20313;-85
2022/03/11 07:32:43;;;;;;;19.60;11.45;;;0.20;99.50;;;;;;5063432;28;20268;-86
2022/03/11 07:35:12;;;;;;;19.52;9.73;;;1.00;99.60;;;;;;5064152;28;20219;-86
2022/03/11 07:37:40;;;;;;;14.35;10.52;;;0.40;99.90;;;;;;5063571;28;20263;-85
2022/03/11 07:40:07;;;;;;;13.55;9.65;;;0.60;99.90;;;;;;5063934;28;20203;-87
2022/03/11 07:42:34;;;;;;;20.42;10.35;;;0.40;98.90;;;;;;5064039;28;20230;-86
2022/03/11 07:45:03;;;;;;;12.75;8.18;;;0.40;98.60;;;;;;5064515;28;20226;-86
2022/03/11 07:47:29;;;;;;;24.92;10.52;;;0.40;98.30;;;;;;5064009;28;20203;-87
2022/03/11 07:49:56;;;;;;;14.13;9.38;;;0.50;98.30;;;;;;5063066;28;20203;-86
2022/03/11 07:52:25;;;;;;;23.08;9.95;;;0.50;98.20;;;;;;5067419;28;20203;-85
2022/03/11 07:55:07;;;;;;;18.77;10.52;;;0.70;97.70;;;;;;5059731;28;20235;-85
2022/03/11 07:57:36;;;;;;;16.90;9.70;;;0.70;97.40;;;;;;5062514;28;20226;-85
2022/03/11 08:00:13;;;;;;;18.42;9.95;;;0.90;99.90;;;;;;5061858;28;20268;-85
2022/03/11 08:02:40;;;;;;;18.33;11.38;;;0.80;97.40;;;;;;5063798;28;20191;-85
2022/03/11 08:05:14;;;;;;;24.30;10.05;;;0.90;97.30;;;;;;5065429;28;20249;-85
2022/03/11 08:07:44;;;;;;;19.52;11.07;;;1.00;96.90;;;;;;5062880;28;20183;-86
2022/03/11 08:10:10;;;;;;;19.67;10.20;;;1.00;95.80;;;;;;5063453;28;20250;-86
2022/03/11 08:12:37;;;;;;;16.95;10.50;;;1.10;96.30;;;;;;5066279;28;20207;-86
2022/03/11 08:15:06;;;;;;;15.75;10.45;;;1.20;96.50;;;;;;5075935;28;20544;-86
2022/03/11 08:17:34;;;;;;;14.00;9.90;;;1.40;95.60;;;;;;5076060;28;20182;-85
2022/03/11 08:20:00;;;;;;;14.30;8.65;;;1.40;95.10;;;;;;5073742;28;20201;-85
2022/03/11 08:22:27;;;;;;;20.08;10.30;;;1.30;99.90;;;;;;5075395;28;20199;-87
2022/03/11 08:24:55;;;;;;;16.00;10.15;;;1.50;94.60;;;;;;5075849;28;20223;-84
2022/03/11 08:27:21;;;;;;;16.83;8.88;;;1.50;94.00;;;;;;5077392;28;20219;-85
2022/03/11 08:29:48;;;;;;;15.20;10.05;;;1.30;99.80;;;;;;5077561;28;20195;-85
2022/03/11 08:32:15;;;;;;;12.80;9.05;;;1.50;93.80;;;;;;5077422;28;20191;-86
2022/03/11 08:34:41;;;;;;;16.52;10.10;;;1.60;93.40;;;;;;5071803;28;20284;-86
2022/03/11 08:37:08;;;;;;;19.27;11.40;;;1.70;93.70;;;;;;5059959;28;20767;-86
2022/03/11 08:39:34;;;;;;;16.27;10.50;;;1.90;93.20;;;;;;5065434;28;20195;-85
2022/03/11 08:42:02;;;;;;;19.00;9.63;;;1.90;92.50;;;;;;5064309;28;20202;-85
2022/03/11 08:44:29;;;;;;;17.42;10.07;;;2.00;92.30;;;;;;5064569;28;20223;-86
2022/03/11 08:46:56;;;;;;;23.70;13.45;;;2.00;92.10;;;;;;5063566;28;20221;-86
2022/03/11 08:49:23;;;;;;;19.65;11.02;;;2.30;97.20;;;;;;5064462;28;20203;-86
2022/03/11 08:51:49;;;;;;;18.48;10.70;;;2.20;91.50;;;;;;5067152;28;20289;-86
2022/03/11 08:54:16;;;;;;;15.93;9.77;;;2.40;95.90;;;;;;5065307;28;20222;-86
2022/03/11 08:56:43;;;;;;;15.05;9.27;;;2.60;90.60;;;;;;5063349;28;20210;-86
2022/03/11 08:59:12;;;;;;;15.57;9.93;;;2.60;90.40;;;;;;5063056;28;20206;-86
2022/03/11 09:01:38;;;;;;;15.30;10.70;;;2.40;88.40;;;;;;5064069;28;20215;-86
2022/03/11 09:04:05;;;;;;;14.98;9.15;;;2.70;99.00;;;;;;5065957;28;20196;-86
2022/03/11 09:06:33;;;;;;;18.92;9.77;;;2.40;88.30;;;;;;5069772;28;20221;-86
2022/03/11 09:09:00;;;;;;;11.15;8.40;;;2.90;88.50;;;;;;5068753;28;20206;-86
2022/03/11 09:11:26;;;;;;;15.00;9.13;;;2.50;88.70;;;;;;5065624;28;20199;-86
2022/03/11 09:13:53;;;;;;;15.65;10.10;;;2.60;86.70;;;;;;5072546;28;20241;-87
2022/03/11 09:16:21;;;;;;;16.08;9.25;;;2.70;86.80;;;;;;5069236;28;20207;-85
2022/03/11 09:18:47;;;;;;;15.10;10.75;;;2.80;84.80;;;;;;5071110;28;20210;-86
2022/03/11 09:21:14;;;;;;;15.88;9.80;;;2.80;96.90;;;;;;5073571;28;20207;-87
2022/03/11 09:23:41;;;;;;;14.85;9.93;;;2.80;84.60;;;;;;5077724;28;20202;-86
2022/03/11 09:26:07;;;;;;;14.95;10.50;;;2.80;84.80;;;;;;5070705;28;20231;-87
2022/03/11 09:28:34;;;;;;;15.95;9.32;;;2.80;84.50;;;;;;5065757;28;20202;-87
2022/03/11 09:31:03;;;;;;;18.40;10.98;;;2.90;84.90;;;;;;5065459;28;20203;-86
2022/03/11 09:33:31;;;;;;;16.10;9.77;;;3.10;88.00;;;;;;5067342;28;20206;-86
2022/03/11 09:35:58;;;;;;;20.48;11.85;;;3.30;84.20;;;;;;5070099;28;20222;-86
2022/03/11 09:38:24;;;;;;;13.40;9.70;;;3.20;82.30;;;;;;5074055;28;20269;-86
2022/03/11 09:40:52;;;;;;;20.13;10.52;;;3.20;80.70;;;;;;5076687;28;20222;-86
2022/03/11 09:43:20;;;;;;;22.27;10.10;;;3.30;81.20;;;;;;5075904;28;20207;-86
2022/03/11 09:45:47;;;;;;;14.68;10.25;;;3.20;94.40;;;;;;5075537;28;20241;-86
2022/03/11 09:48:15;;;;;;;10.63;9.27;;;3.50;81.10;;;;;;5075046;28;20207;-85
2022/03/11 09:50:43;;;;;;;17.92;10.20;;;3.50;77.00;;;;;;5074635;28;20662;-86
2022/03/11 09:53:11;;;;;;;15.60;9.00;;;3.40;76.80;;;;;;5070379;28;20214;-86
2022/03/11 09:55:37;;;;;;;12.10;9.63;;;3.50;76.40;;;;;;5069901;28;20257;-86
2022/03/11 09:58:04;;;;;;;17.75;10.60;;;3.50;75.30;;;;;;5071375;28;20225;-86
2022/03/11 10:00:31;;;;;;;15.32;9.23;;;3.70;75.40;;;;;;5070283;28;20302;-87
2022/03/11 10:02:57;;;;;;;11.27;8.10;;;3.80;75.40;;;;;;5071056;28;20207;-86
2022/03/11 10:05:24;;;;;;;13.10;9.68;;;3.90;73.30;;;;;;5069005;28;20258;-85
2022/03/11 10:08:04;;;;;;;15.43;9.60;;;3.90;89.20;;;;;;5079159;28;20221;-84
2022/03/11 10:10:32;;;;;;;13.23;9.57;;;3.80;91.10;;;;;;5079879;28;20205;-84
2022/03/11 10:12:58;;;;;;;13.63;10.32;;;4.00;72.70;;;;;;5080074;28;20245;-84
2022/03/11 10:15:29;;;;;;;12.88;9.32;;;4.00;70.40;;;;;;5079706;28;20235;-84
2022/03/11 10:17:56;;;;;;;17.02;10.07;;;4.00;70.20;;;;;;5079958;28;20175;-84
2022/03/11 10:20:23;;;;;;;17.88;8.55;;;3.90;87.80;;;;;;5079547;28;20191;-85
2022/03/11 10:22:50;;;;;;;17.52;11.20;;;4.10;67.80;;;;;;5079078;28;20222;-85
2022/03/11 10:25:20;;;;;;;15.32;9.32;;;4.00;67.80;;;;;;5077793;28;20234;-86
2022/03/11 10:27:56;;;;;;;22.75;10.20;;;4.50;88.40;;;;;;5076284;28;20247;-86
2022/03/11 10:30:23;;;;;;;16.30;9.30;;;4.20;67.00;;;;;;5072018;28;20198;-87
2022/03/11 10:32:51;;;;;;;17.13;9.20;;;4.20;65.80;;;;;;5068607;28;20209;-87
2022/03/11 10:35:19;;;;;;;16.65;9.90;;;4.30;66.10;;;;;;5067511;28;20226;-87
2022/03/11 10:38:00;;;;;;;16.90;9.88;;;4.40;70.70;;;;;;5113024;22;20203;-88
2022/03/11 10:40:30;;;;;;;16.70;10.10;;;4.40;62.30;;;;;;5050912;28;20207;-87
2022/03/11 10:43:11;;;;;;;13.32;10.20;;;4.50;63.00;;;;;;5040863;28;20204;-87
2022/03/11 10:45:45;;;;;;;21.63;10.00;;;3.70;81.10;;;;;;5042229;28;20219;-87
2022/03/11 10:48:12;;;;;;;10.98;8.10;;;4.60;62.60;;;;;;5042103;28;20228;-87
2022/03/11 10:50:39;;;;;;;13.07;9.48;;;4.60;60.20;;;;;;5043375;28;20207;-87
2022/03/11 10:53:07;;;;;;;18.98;8.70;;;4.80;59.90;;;;;;5040780;28;20208;-86
2022/03/11 10:55:46;;;;;;;13.35;9.98;;;5.00;60.30;;;;;;5039978;28;20217;-87
2022/03/11 10:58:16;;;;;;;14.98;9.48;;;4.90;58.20;;;;;;5040947;28;20374;-87
2022/03/11 11:00:44;;;;;;;14.55;8.98;;;;;;;;;;5043464;28;20191;-86
2022/03/11 11:03:14;;;;;;;12.02;7.70;;;5.20;55.40;;;;;;5043991;28;20203;-88
2022/03/11 11:05:41;;;;;;;13.63;9.32;;;5.20;55.90;;;;;;5043391;28;20299;-87
2022/03/11 11:08:09;;;;;;;10.70;7.85;;;5.10;54.80;;;;;;5040706;28;20238;-88
2022/03/11 11:10:38;;;;;;;14.45;9.10;;;5.10;53.90;;;;;;5040308;28;20670;-88
2022/03/11 11:13:06;;;;;;;16.13;8.90;;;5.30;54.10;;;;;;5041049;28;20230;-87
2022/03/11 11:15:33;;;;;;;11.45;7.25;;;5.40;52.60;;;;;;5041216;28;20203;-87
2022/03/11 11:18:06;;;;;;;10.13;8.02;;;5.50;51.20;;;;;;5048398;28;20352;-88
2022/03/11 11:20:45;;;;;;;14.77;8.15;;;5.50;50.50;;;;;;5051998;28;20200;-87
2022/03/11 11:23:11;;;;;;;14.60;8.95;;;5.60;61.90;;;;;;5041533;28;20242;-87
2022/03/11 11:25:43;;;;;;;13.05;8.85;;;5.60;49.50;;;;;;5040489;28;20238;-88
2022/03/11 11:28:15;;;;;;;15.18;8.90;;;5.60;62.20;;;;;;5041359;28;20266;-88
2022/03/11 11:30:43;;;;;;;17.33;8.48;;;5.80;50.00;;;;;;5046053;28;20214;-87
2022/03/11 11:33:11;;;;;;;12.93;8.27;;;5.90;58.40;;;;;;5049293;28;20199;-87
2022/03/11 11:35:39;;;;;;;13.73;7.35;;;5.80;47.00;;;;;;5047128;28;20655;-87
2022/03/11 11:38:25;;;;;;;11.80;6.72;;;5.80;45.90;;;;;;5050577;28;20231;-88
2022/03/11 11:41:00;;;;;;;10.30;7.32;;;6.20;59.10;;;;;;5054305;28;20191;-87
2022/03/11 11:43:27;;;;;;;11.57;7.07;;;6.00;46.60;;;;;;5056328;28;20194;-87
2022/03/11 11:45:58;;;;;;;13.25;10.23;;;6.10;45.90;;;;;;5053765;28;20271;-88
2022/03/11 11:48:55;;;;;;;14.45;8.85;;;6.30;45.00;;;;;;5051042;28;20231;-88
2022/03/11 11:51:24;;;;;;;16.67;7.75;;;6.30;46.60;;;;;;4982393;28;20212;-88
2022/03/11 11:53:53;;;;;;;10.43;6.78;;;6.40;45.40;;;;;;5029016;28;20686;-86
2022/03/11 11:56:33;;;;;;;14.10;8.18;;;6.30;42.50;;;;;;5042271;28;20200;-87
2022/03/11 11:59:03;;;;;;;9.38;6.93;;;6.40;42.50;;;;;;5044094;28;20242;-87
2022/03/11 12:01:43;;;;;;;18.00;8.27;;;6.40;41.10;;;;;;5041605;28;20188;-87
2022/03/11 12:04:24;;;;;;;13.07;7.40;;;6.50;41.30;;;;;;5041000;28;20222;-87
2022/03/11 12:06:54;;;;;;;10.30;7.00;;;6.70;40.30;;;;;;5042633;28;20606;-87
2022/03/11 12:09:47;;;;;;;12.50;7.78;;;6.80;39.50;;;;;;5040548;28;20227;-87
2022/03/11 12:12:57;;;;;;;14.68;7.13;;;6.90;39.00;;;;;;5040712;28;20192;-87
2022/03/11 12:15:24;;;;;;;8.82;6.45;;;6.70;36.40;;;;;;5039666;28;20196;-87
2022/03/11 12:17:59;;;;;;;15.43;7.60;;;6.70;37.40;;;;;;5039421;28;20562;-88
2022/03/11 12:20:45;;;;;;;6.68;5.78;;;6.60;35.30;;;;;;5040505;28;20229;-87
2022/03/11 12:23:13;;;;;;;9.05;6.28;;;6.70;35.30;;;;;;5047095;28;20717;-87
2022/03/11 12:25:44;;;;;;;12.48;7.28;;;6.90;46.80;;;;;;5055347;28;20196;-87
2022/03/11 12:28:16;;;;;;;14.80;7.10;;;7.00;35.70;;;;;;5045253;28;20740;-86
2022/03/11 12:30:55;;;;;;;15.63;6.38;;;7.20;34.70;;;;;;5041375;28;20199;-87
2022/03/11 12:33:23;;;;;;;12.32;6.45;;;7.30;34.00;;;;;;5040470;28;20354;-88
2022/03/11 12:35:53;;;;;;;9.40;6.53;;;7.30;34.30;;;;;;5040256;28;20690;-88
2022/03/11 12:38:24;;;;;;;7.20;5.28;;;7.40;44.80;;;;;;5039286;28;20228;-88
2022/03/11 12:40:51;;;;;;;8.95;6.30;;;7.30;31.40;;;;;;5038761;28;20719;-88
2022/03/11 12:43:23;;;;;;;8.60;5.60;;;7.10;30.00;;;;;;5050208;28;20207;-87
2022/03/11 12:45:52;;;;;;;10.02;6.78;;;7.20;30.30;;;;;;5043072;28;20238;-88